createdAt,value
2022-08-09T00:01:05.589Z,4.50
2022-08-09T00:04:05.838Z,4.57
2022-08-09T00:06:24.556Z,4.80
2022-08-09T00:08:52.173Z,4.70
2022-08-09T00:11:25.212Z,4.53
2022-08-09T00:13:52.125Z,4.37
2022-08-09T00:16:26.546Z,4.88
2022-08-09T00:19:09.510Z,4.68
2022-08-09T00:21:38.152Z,4.30
2022-08-09T00:24:23.620Z,4.45
2022-08-09T00:26:51.716Z,4.67
2022-08-09T00:29:39.946Z,5.03
2022-08-09T00:32:05.590Z,4.38
2022-08-09T00:34:33.411Z,4.80
2022-08-09T00:37:00.279Z,4.75
2022-08-09T00:40:13.433Z,4.90
2022-08-09T00:44:11.268Z,4.65
2022-08-09T00:44:59.708Z,4.72
2022-08-09T00:47:33.085Z,5.00
2022-08-09T00:50:02.789Z,4.95
2022-08-09T00:52:30.882Z,4.83
2022-08-09T00:55:01.669Z,5.15
2022-08-09T00:57:34.411Z,5.10
2022-08-09T01:00:21.246Z,4.80
2022-08-09T01:02:53.652Z,5.00
2022-08-09T01:05:50.638Z,5.07
2022-08-09T01:08:33.371Z,5.30
2022-08-09T01:11:22.941Z,5.60
2022-08-09T01:14:02.457Z,4.90
2022-08-09T01:16:35.169Z,5.57
2022-08-09T01:19:16.739Z,5.37
2022-08-09T01:22:42.681Z,5.18
2022-08-09T01:25:19.104Z,5.40
2022-08-09T01:27:51.424Z,5.00
2022-08-09T01:30:33.678Z,5.30
2022-08-09T01:33:06.242Z,5.00
2022-08-09T01:35:51.841Z,5.07
2022-08-09T01:38:23.451Z,5.55
2022-08-09T01:41:02.976Z,5.40
2022-08-09T01:43:51.330Z,5.90
2022-08-09T01:46:26.475Z,5.50
2022-08-09T01:49:00.206Z,5.35
2022-08-09T01:51:38.429Z,5.78
2022-08-09T01:54:10.486Z,6.00
2022-08-09T01:56:40.355Z,5.80
2022-08-09T01:59:11.079Z,5.60
2022-08-09T02:01:59.576Z,5.88
2022-08-09T02:04:29.569Z,6.00
2022-08-09T02:07:02.002Z,6.07
2022-08-09T02:09:41.827Z,5.70
2022-08-09T02:12:18.075Z,5.43
2022-08-09T02:14:51.802Z,5.57
2022-08-09T02:17:59.247Z,5.68
2022-08-09T02:20:10.194Z,6.13
2022-08-09T02:23:04.914Z,5.65
2022-08-09T02:25:42.190Z,5.90
2022-08-09T02:28:18.060Z,6.00
2022-08-09T02:31:02.251Z,5.50
2022-08-09T02:33:37.866Z,5.90
2022-08-09T02:36:08.469Z,6.03
2022-08-09T02:38:47.783Z,5.90
2022-08-09T02:41:22.410Z,5.07
2022-08-09T02:43:54.662Z,6.00
2022-08-09T02:46:27.347Z,6.00
2022-08-09T02:48:58.788Z,6.30
2022-08-09T02:51:28.008Z,6.23
2022-08-09T02:54:04.947Z,5.78
2022-08-09T02:56:34.281Z,5.90
2022-08-09T02:59:05.894Z,6.32
2022-08-09T03:01:43.324Z,6.05
2022-08-09T03:04:26.290Z,6.27
2022-08-09T03:06:56.984Z,6.15
2022-08-09T03:09:27.913Z,6.35
2022-08-09T03:12:05.856Z,5.68
2022-08-09T03:14:36.735Z,6.40
2022-08-09T03:17:05.713Z,6.93
2022-08-09T03:19:52.361Z,6.20
2022-08-09T03:22:30.083Z,7.00
2022-08-09T03:25:21.259Z,6.85
2022-08-09T03:27:48.067Z,6.80
2022-08-09T03:30:30.015Z,6.30
2022-08-09T03:33:05.765Z,6.50
2022-08-09T03:36:11.573Z,7.20
2022-08-09T03:38:30.740Z,6.85
2022-08-09T03:40:57.267Z,6.85
2022-08-09T03:43:23.736Z,7.57
2022-08-09T03:46:05.159Z,7.00
2022-08-09T03:48:51.522Z,7.10
2022-08-09T03:51:44.470Z,7.07
2022-08-09T03:54:11.038Z,7.22
2022-08-09T03:56:41.023Z,6.83
2022-08-09T03:59:17.369Z,7.30
2022-08-09T04:01:49.484Z,7.18
2022-08-09T04:04:17.397Z,7.13
2022-08-09T04:06:49.034Z,7.25
2022-08-09T04:09:41.645Z,7.37
2022-08-09T04:12:11.984Z,7.25
2022-08-09T04:15:00.646Z,6.70
2022-08-09T04:17:25.657Z,7.10
2022-08-09T04:19:56.340Z,7.07
2022-08-09T04:22:22.938Z,7.17
2022-08-09T04:24:49.374Z,6.45
2022-08-09T04:27:22.194Z,7.15
2022-08-09T04:29:49.367Z,7.00
2022-08-09T04:32:17.171Z,7.00
2022-08-09T04:34:57.953Z,7.27
2022-08-09T04:37:24.404Z,6.90
2022-08-09T04:40:11.802Z,6.72
2022-08-09T04:42:48.632Z,6.50
2022-08-09T04:45:15.679Z,7.18
2022-08-09T04:47:45.143Z,7.17
2022-08-09T04:50:33.690Z,6.93
2022-08-09T04:53:04.163Z,6.50
2022-08-09T04:55:37.939Z,6.57
2022-08-09T04:58:17.450Z,6.75
2022-08-09T05:00:44.653Z,6.40
2022-08-09T05:03:30.124Z,6.50
2022-08-09T05:06:06.794Z,6.38
2022-08-09T05:08:34.655Z,6.45
2022-08-09T05:11:02.433Z,6.55
2022-08-09T05:13:29.201Z,6.20
2022-08-09T05:16:00.054Z,5.72
2022-08-09T05:18:37.771Z,6.60
2022-08-09T05:21:09.803Z,6.57
2022-08-09T05:23:54.495Z,6.53
2022-08-09T05:26:29.700Z,6.03
2022-08-09T05:29:04.505Z,6.45
2022-08-09T05:31:44.216Z,6.50
2022-08-09T05:34:17.037Z,6.40
2022-08-09T05:36:47.042Z,6.65
2022-08-09T05:39:29.032Z,6.27
2022-08-09T05:42:01.701Z,6.20
2022-08-09T05:44:32.745Z,6.20
2022-08-09T05:47:01.271Z,6.38
2022-08-09T05:50:23.195Z,6.47
2022-08-09T05:52:19.222Z,6.27
2022-08-09T05:54:46.216Z,6.05
2022-08-09T05:57:17.652Z,6.10
2022-08-09T05:59:46.075Z,6.97
2022-08-09T06:02:17.142Z,6.28
2022-08-09T06:04:46.205Z,6.67
2022-08-09T06:07:21.957Z,6.40
2022-08-09T06:10:02.284Z,6.10
2022-08-09T06:12:30.588Z,5.90
2022-08-09T06:15:01.061Z,6.50
2022-08-09T06:17:39.364Z,7.10
2022-08-09T06:20:07.055Z,5.90
2022-08-09T06:22:34.507Z,5.95
2022-08-09T06:25:01.178Z,6.63
2022-08-09T06:27:43.100Z,6.28
2022-08-09T06:30:16.156Z,6.53
2022-08-09T06:32:58.735Z,5.97
2022-08-09T06:35:55.976Z,6.10
2022-08-09T06:38:15.903Z,6.32
2022-08-09T06:40:43.188Z,6.10
2022-08-09T06:43:10.581Z,6.37
2022-08-09T06:46:06.625Z,6.10
2022-08-09T06:48:26.069Z,5.93
2022-08-09T06:50:56.722Z,6.30
2022-08-09T06:53:23.211Z,6.50
2022-08-09T06:55:50.360Z,5.93
2022-08-09T07:00:47.597Z,6.00
2022-08-09T07:01:04.136Z,6.63
2022-08-09T07:03:30.855Z,5.38
2022-08-09T07:06:03.851Z,6.40
2022-08-09T07:08:31.941Z,5.57
2022-08-09T07:10:58.415Z,5.78
2022-08-09T07:13:28.152Z,5.60
2022-08-09T07:16:42.656Z,6.28
2022-08-09T07:18:43.035Z,6.80
2022-08-09T07:21:09.794Z,5.73
2022-08-09T07:23:56.690Z,5.38
2022-08-09T07:26:23.516Z,5.80
2022-08-09T07:29:01.308Z,5.60
2022-08-09T07:31:38.346Z,5.55
2022-08-09T07:34:05.248Z,5.77
2022-08-09T07:36:31.727Z,5.80
2022-08-09T07:39:00.759Z,5.55
2022-08-09T07:41:33.169Z,5.80
2022-08-09T07:44:05.659Z,5.65
2022-08-09T07:46:33.370Z,5.10
2022-08-09T07:49:03.462Z,5.10
2022-08-09T07:52:04.979Z,5.55
2022-08-09T07:54:19.260Z,4.93
2022-08-09T07:56:54.302Z,5.38
2022-08-09T07:59:25.516Z,5.30
2022-08-09T08:02:01.956Z,5.00
2022-08-09T08:04:31.448Z,4.72
2022-08-09T08:07:09.581Z,4.40
2022-08-09T08:09:53.341Z,5.00
2022-08-09T08:12:31.899Z,4.10
2022-08-09T08:14:58.462Z,4.60
2022-08-09T08:17:35.533Z,4.40
2022-08-09T08:20:13.538Z,4.55
2022-08-09T08:22:40.848Z,4.40
2022-08-09T08:25:13.294Z,4.73
2022-08-09T08:27:43.097Z,3.97
2022-08-09T08:30:11.967Z,4.80
2022-08-09T08:32:52.455Z,3.83
2022-08-09T08:35:20.190Z,4.30
2022-08-09T08:37:59.448Z,3.80
2022-08-09T08:40:29.709Z,4.00
2022-08-09T08:42:58.770Z,4.28
2022-08-09T08:45:51.402Z,4.07
2022-08-09T08:48:21.850Z,3.97
2022-08-09T08:50:49.424Z,3.83
2022-08-09T08:53:22.068Z,3.58
2022-08-09T08:55:48.997Z,3.50
2022-08-09T08:58:23.964Z,3.50
2022-08-09T09:00:57.086Z,3.22
2022-08-09T09:03:33.277Z,3.00
2022-08-09T09:06:05.312Z,3.10
2022-08-09T09:08:41.123Z,3.40
2022-08-09T09:11:17.279Z,3.17
2022-08-09T09:13:57.063Z,2.90
2022-08-09T09:16:35.135Z,2.80
2022-08-09T09:19:41.346Z,2.50
2022-08-09T09:22:11.473Z,2.65
2022-08-09T09:24:43.289Z,2.90
2022-08-09T09:27:22.151Z,2.88
2022-08-09T09:30:22.769Z,2.80
2022-08-09T09:33:14.352Z,2.80
2022-08-09T09:36:01.538Z,2.58
2022-08-09T09:38:40.483Z,2.60
2022-08-09T09:41:07.287Z,2.50
2022-08-09T09:43:41.591Z,2.00
2022-08-09T09:46:42.267Z,2.17
2022-08-09T09:49:18.753Z,2.10
2022-08-09T09:52:08.245Z,2.35
2022-08-09T09:55:24.305Z,2.40
2022-08-09T09:58:19.238Z,2.10
2022-08-09T10:00:52.610Z,2.30
2022-08-09T10:03:39.663Z,2.10
2022-08-09T10:06:06.984Z,2.20
2022-08-09T10:08:54.727Z,2.20
2022-08-09T10:14:33.221Z,2.20
2022-08-09T10:17:40.177Z,2.50
2022-08-09T10:19:57.195Z,2.00
2022-08-09T10:22:51.218Z,2.10
2022-08-09T10:25:21.531Z,1.80
2022-08-09T10:27:57.612Z,2.10
2022-08-09T10:34:04.895Z,1.90
2022-08-09T10:36:03.249Z,1.88
2022-08-09T10:38:34.071Z,1.80
2022-08-09T10:41:20.675Z,1.80
2022-08-09T10:44:01.397Z,2.40
2022-08-09T10:46:57.474Z,1.80
2022-08-09T10:49:49.697Z,1.80
2022-08-09T10:52:44.782Z,2.20
2022-08-09T10:55:49.380Z,2.00
2022-08-09T10:58:37.336Z,1.83
2022-08-09T11:03:06.683Z,2.00
2022-08-09T11:04:27.778Z,2.00
2022-08-09T11:07:01.172Z,1.60
2022-08-09T11:09:47.760Z,1.80
2022-08-09T11:12:22.835Z,2.10
2022-08-09T11:15:24.917Z,2.20
2022-08-09T11:18:02.764Z,1.90
2022-08-09T11:20:44.852Z,2.00
2022-08-09T11:23:11.973Z,1.73
2022-08-09T11:25:47.178Z,2.00
2022-08-09T11:28:38.776Z,2.00
2022-08-09T11:31:50.196Z,1.80
2022-08-09T11:34:34.974Z,1.67
2022-08-09T11:37:03.120Z,2.30
2022-08-09T11:40:00.519Z,2.10
2022-08-09T11:42:40.014Z,1.77
2022-08-09T11:45:21.911Z,2.00
2022-08-09T11:47:53.839Z,2.00
2022-08-09T11:50:55.301Z,1.70
2022-08-09T11:53:58.109Z,2.10
2022-08-09T11:56:02.737Z,1.88
2022-08-09T11:58:32.696Z,1.90
2022-08-09T12:01:08.268Z,1.70
2022-08-09T12:03:57.484Z,1.80
2022-08-09T12:06:24.746Z,1.90
2022-08-09T12:08:56.046Z,1.80
2022-08-09T12:11:25.916Z,1.90
2022-08-09T12:14:07.017Z,1.60
2022-08-09T12:16:42.907Z,1.63
2022-08-09T12:19:11.468Z,1.73
2022-08-09T12:21:48.428Z,2.10
2022-08-09T12:24:22.097Z,2.10
2022-08-09T12:28:57.685Z,2.03
2022-08-09T12:29:44.560Z,1.90
2022-08-09T12:32:26.839Z,1.92
2022-08-09T12:35:02.896Z,1.90
2022-08-09T12:37:33.161Z,1.90
2022-08-09T12:40:11.718Z,1.90
2022-08-09T12:42:43.927Z,1.90
2022-08-09T12:45:33.642Z,2.00
2022-08-09T12:47:58.010Z,1.83
2022-08-09T12:50:25.326Z,1.80
2022-08-09T12:53:09.650Z,1.83
2022-08-09T12:56:14.736Z,1.88
2022-08-09T12:58:28.350Z,1.95
2022-08-09T13:00:55.580Z,1.75
2022-08-09T13:03:53.167Z,1.85
2022-08-09T13:06:34.213Z,2.10
2022-08-09T13:09:13.978Z,1.70
2022-08-09T13:11:44.274Z,1.67
2022-08-09T13:14:42.348Z,1.90
2022-08-09T13:17:03.857Z,2.20
2022-08-09T13:20:09.012Z,1.70
2022-08-09T13:23:02.190Z,1.73
2022-08-09T13:25:12.186Z,1.90
2022-08-09T13:27:54.740Z,1.80
2022-08-09T13:30:51.592Z,1.90
2022-08-09T13:33:11.635Z,1.77
2022-08-09T13:36:41.839Z,1.98
2022-08-09T13:38:54.161Z,1.80
2022-08-09T13:41:57.643Z,1.77
2022-08-09T13:44:09.776Z,1.80
2022-08-09T13:47:27.489Z,1.60
2022-08-09T13:49:38.112Z,1.70
2022-08-09T13:52:18.161Z,1.90
2022-08-09T13:54:49.667Z,1.70
2022-08-09T13:57:36.748Z,1.60
2022-08-09T14:00:15.688Z,1.67
2022-08-09T14:03:03.277Z,1.70
2022-08-09T14:05:56.651Z,1.60
2022-08-09T14:08:21.489Z,1.50
2022-08-09T14:10:52.051Z,1.40
2022-08-09T14:14:16.417Z,1.43
2022-08-09T14:16:14.239Z,2.00
2022-08-09T14:18:45.276Z,1.65
2022-08-09T14:21:12.215Z,1.50
2022-08-09T14:23:40.145Z,1.40
2022-08-09T14:26:14.584Z,1.33
2022-08-09T14:28:41.817Z,1.45
2022-08-09T14:31:11.201Z,1.60
2022-08-09T14:33:38.289Z,1.45
2022-08-09T14:36:19.866Z,1.58
2022-08-09T14:38:47.532Z,1.50
2022-08-09T14:41:34.355Z,1.50
2022-08-09T14:44:03.648Z,1.40
2022-08-09T14:46:55.534Z,1.50
2022-08-09T14:49:17.207Z,1.40
2022-08-09T14:51:43.639Z,1.40
2022-08-09T14:54:10.087Z,1.25
2022-08-09T14:56:57.765Z,1.40
2022-08-09T14:59:23.448Z,1.55
2022-08-09T15:01:50.389Z,1.40
2022-08-09T15:04:17.248Z,1.30
2022-08-09T15:06:49.467Z,1.48
2022-08-09T15:10:03.313Z,1.40
2022-08-09T15:12:04.838Z,1.38
2022-08-09T15:14:38.618Z,1.70
2022-08-09T15:17:06.345Z,1.50
2022-08-09T15:19:36.055Z,1.30
2022-08-09T15:22:03.043Z,1.30
2022-08-09T15:24:29.743Z,1.40
2022-08-09T15:26:56.219Z,1.75
2022-08-09T15:30:59.834Z,1.63
2022-08-09T15:32:29.377Z,1.90
2022-08-09T15:34:57.638Z,1.60
2022-08-09T15:37:24.081Z,1.67
2022-08-09T15:40:19.801Z,2.10
2022-08-09T15:42:47.956Z,1.63
2022-08-09T15:45:21.620Z,1.50
2022-08-09T15:48:06.509Z,1.70
2022-08-09T15:50:43.702Z,1.50
2022-08-09T15:54:00.154Z,1.60
2022-08-09T15:56:21.064Z,1.40
2022-08-09T15:58:44.425Z,1.30
2022-08-09T16:01:13.280Z,1.50
2022-08-09T16:03:41.747Z,1.40
2022-08-09T16:06:32.570Z,1.50
2022-08-09T16:08:55.653Z,1.60
2022-08-09T16:11:22.135Z,1.58
2022-08-09T16:14:02.653Z,1.70
2022-08-09T16:16:33.085Z,1.50
2022-08-09T16:19:01.417Z,1.45
2022-08-09T16:21:27.992Z,1.57
2022-08-09T16:24:02.240Z,1.60
2022-08-09T16:26:34.408Z,2.00
2022-08-09T16:29:10.792Z,2.15
2022-08-09T16:32:18.882Z,1.85
2022-08-09T16:34:55.840Z,1.60
2022-08-09T16:37:55.328Z,1.50
2022-08-09T16:40:10.449Z,1.80
2022-08-09T16:42:37.789Z,1.42
2022-08-09T16:45:06.135Z,1.80
2022-08-09T16:48:39.963Z,1.70
2022-08-09T16:50:33.262Z,1.60
2022-08-09T16:53:01.775Z,1.60
2022-08-09T16:55:31.562Z,1.63
2022-08-09T16:58:16.487Z,1.70
2022-08-09T17:00:43.330Z,1.77
2022-08-09T17:03:21.039Z,1.65
2022-08-09T17:06:08.007Z,3.05
2022-08-09T17:09:01.045Z,2.50
2022-08-09T17:11:41.179Z,1.70
2022-08-09T17:14:26.677Z,1.67
2022-08-09T17:17:03.223Z,1.70
2022-08-09T17:19:46.786Z,1.70
2022-08-09T17:22:31.225Z,1.77
2022-08-09T17:25:03.262Z,1.75
2022-08-09T17:27:32.005Z,1.80
2022-08-09T17:29:58.491Z,1.90
2022-08-09T17:32:26.664Z,1.83
2022-08-09T17:35:10.931Z,1.70
2022-08-09T17:38:12.707Z,2.05
2022-08-09T17:40:29.918Z,1.80
2022-08-09T17:42:59.687Z,1.80
2022-08-09T17:46:02.114Z,1.80
2022-08-09T17:48:28.544Z,2.20
2022-08-09T17:50:59.514Z,2.00
2022-08-09T17:53:43.488Z,1.80
2022-08-09T17:56:14.833Z,1.88
2022-08-09T17:58:45.071Z,1.85
2022-08-09T18:01:22.236Z,2.00
2022-08-09T18:03:49.882Z,2.00
2022-08-09T18:06:30.700Z,2.00
2022-08-09T18:09:03.637Z,2.20
2022-08-09T18:11:31.642Z,2.03
2022-08-09T18:14:18.732Z,2.00
2022-08-09T18:16:49.385Z,2.10
2022-08-09T18:20:59.696Z,2.20
2022-08-09T18:22:04.606Z,2.00
2022-08-09T18:24:31.304Z,2.00
2022-08-09T18:26:57.972Z,2.10
2022-08-09T18:30:38.427Z,2.22
2022-08-09T18:32:14.138Z,2.20
2022-08-09T18:34:45.785Z,2.00
2022-08-09T18:37:47.395Z,2.10
2022-08-09T18:40:01.926Z,1.80
2022-08-09T18:42:29.419Z,2.10
2022-08-09T18:45:01.167Z,2.00
2022-08-09T18:47:37.196Z,2.33
2022-08-09T18:50:06.207Z,2.25
2022-08-09T18:52:36.103Z,2.20
2022-08-09T18:55:04.195Z,2.03
2022-08-09T18:57:42.973Z,2.10
2022-08-09T19:00:11.338Z,1.98
2022-08-09T19:02:43.112Z,2.10
2022-08-09T19:05:19.693Z,1.95
2022-08-09T19:08:04.459Z,2.03
2022-08-09T19:10:39.235Z,2.30
2022-08-09T19:13:23.568Z,1.90
2022-08-09T19:15:55.753Z,1.90
2022-08-09T19:18:36.596Z,2.30
2022-08-09T19:21:09.860Z,2.00
2022-08-09T19:24:32.489Z,1.90
2022-08-09T19:26:31.741Z,2.20
2022-08-09T19:29:15.427Z,2.10
2022-08-09T19:31:46.477Z,2.17
2022-08-09T19:34:18.234Z,2.22
2022-08-09T19:36:49.089Z,2.13
2022-08-09T19:39:15.911Z,2.22
2022-08-09T19:41:42.545Z,2.25
2022-08-09T19:44:09.094Z,2.42
2022-08-09T19:46:50.795Z,2.13
2022-08-09T19:50:07.188Z,2.10
2022-08-09T19:52:08.015Z,2.42
2022-08-09T19:54:34.759Z,2.10
2022-08-09T19:57:02.334Z,2.30
2022-08-09T19:59:57.958Z,2.10
2022-08-09T20:04:18.061Z,2.23
2022-08-09T20:05:02.631Z,2.03
2022-08-09T20:07:59.644Z,1.90
2022-08-09T20:10:28.059Z,1.92
2022-08-09T20:13:02.127Z,2.08
2022-08-09T20:16:32.901Z,2.00
2022-08-09T20:18:15.066Z,2.10
2022-08-09T20:20:43.732Z,2.10
2022-08-09T20:23:10.527Z,2.10
2022-08-09T20:25:51.328Z,2.10
2022-08-09T20:28:27.980Z,2.20
2022-08-09T20:31:04.686Z,2.20
2022-08-09T20:33:39.149Z,2.20
2022-08-09T20:36:10.572Z,2.10
2022-08-09T20:41:34.698Z,2.40
2022-08-09T20:44:10.147Z,2.33
2022-08-09T20:46:43.063Z,2.65
2022-08-09T20:49:11.425Z,2.40
2022-08-09T20:51:40.907Z,2.50
2022-08-09T20:54:12.791Z,2.40
2022-08-09T20:56:47.199Z,2.40
2022-08-09T20:59:17.607Z,2.60
2022-08-09T21:01:53.387Z,2.58
2022-08-09T21:05:54.618Z,2.60
2022-08-09T21:07:12.294Z,2.37
2022-08-09T21:09:55.753Z,2.42
2022-08-09T21:15:13.399Z,2.50
2022-08-09T21:18:21.319Z,2.45
2022-08-09T21:20:29.788Z,2.40
2022-08-09T21:22:57.294Z,2.80
2022-08-09T21:25:25.062Z,2.50
2022-08-09T21:27:53.147Z,2.40
2022-08-09T21:30:22.267Z,2.25
2022-08-09T21:32:49.028Z,2.47
2022-08-09T21:35:16.015Z,2.47
2022-08-09T21:37:58.702Z,2.60
2022-08-09T21:40:30.227Z,2.30
2022-08-09T21:42:59.258Z,2.53
2022-08-09T21:45:26.687Z,2.30
2022-08-09T21:47:53.214Z,2.80
2022-08-09T21:50:35.767Z,2.50
2022-08-09T21:53:06.261Z,2.63
2022-08-09T21:55:32.748Z,2.53
2022-08-09T21:58:00.682Z,2.47
2022-08-09T22:00:33.624Z,2.60
2022-08-09T22:03:04.842Z,2.40
2022-08-09T22:05:35.629Z,2.60
2022-08-09T22:08:13.634Z,2.28
2022-08-09T22:11:00.826Z,2.40
2022-08-09T22:13:33.913Z,2.47
2022-08-09T22:16:00.935Z,2.50
2022-08-09T22:18:32.670Z,2.50
2022-08-09T22:20:59.929Z,2.70
2022-08-09T22:23:27.028Z,2.53
2022-08-09T22:26:05.802Z,2.70
2022-08-09T22:28:47.164Z,2.53
2022-08-09T22:31:20.514Z,2.72
2022-08-09T22:33:48.849Z,2.50
2022-08-09T22:36:22.042Z,2.70
2022-08-09T22:38:48.826Z,2.63
2022-08-09T22:41:15.686Z,2.50
2022-08-09T22:44:02.220Z,2.80
2022-08-09T22:48:10.397Z,2.60
2022-08-09T22:49:16.104Z,2.53
2022-08-09T22:51:43.306Z,2.88
2022-08-09T22:54:16.050Z,2.80
2022-08-09T22:56:47.686Z,2.50
2022-08-09T22:59:57.702Z,2.80
2022-08-09T23:02:03.896Z,2.63
2022-08-09T23:04:32.587Z,2.97
2022-08-09T23:06:59.600Z,2.70
2022-08-09T23:09:26.045Z,2.90
2022-08-09T23:11:52.592Z,3.17
2022-08-09T23:14:37.710Z,2.97
2022-08-09T23:17:06.721Z,3.20
2022-08-09T23:20:06.521Z,3.00
2022-08-09T23:22:19.653Z,2.75
2022-08-09T23:24:48.708Z,2.80
2022-08-09T23:27:16.147Z,2.70
2022-08-09T23:29:42.637Z,2.95
2022-08-09T23:32:09.118Z,3.15
2022-08-09T23:34:35.839Z,2.80
2022-08-09T23:37:02.585Z,2.92
2022-08-09T23:39:29.102Z,2.60
2022-08-09T23:41:55.615Z,2.97
2022-08-09T23:44:22.161Z,2.95
2022-08-09T23:46:48.692Z,2.58
2022-08-09T23:49:25.058Z,2.83
2022-08-09T23:51:52.433Z,2.90
2022-08-09T23:54:19.739Z,2.90
2022-08-09T23:56:54.028Z,2.90
2022-08-09T23:59:22.347Z,2.85
